createdAt,value
2022-12-23T00:00:25.007Z,49.00
2022-12-23T00:02:53.323Z,49.10
2022-12-23T00:05:21.619Z,45.13
2022-12-23T00:07:49.753Z,49.10
2022-12-23T00:10:17.882Z,44.07
2022-12-23T00:13:02.964Z,46.20
2022-12-23T00:15:32.460Z,47.40
2022-12-23T00:18:00.673Z,42.10
2022-12-23T00:20:28.891Z,55.37
2022-12-23T00:23:06.223Z,45.67
2022-12-23T00:25:44.761Z,45.07
2022-12-23T00:28:14.373Z,49.70
2022-12-23T00:30:51.056Z,49.00
2022-12-23T00:33:20.999Z,45.83
2022-12-23T00:35:50.421Z,50.10
2022-12-23T00:38:40.551Z,56.27
2022-12-23T00:41:29.760Z,45.87
2022-12-23T00:43:58.064Z,42.60
2022-12-23T00:46:27.600Z,43.67
2022-12-23T00:49:13.604Z,36.93
2022-12-23T00:51:41.773Z,45.53
2022-12-23T00:54:09.982Z,40.93
2022-12-23T00:56:38.168Z,39.50
2022-12-23T00:59:06.358Z,34.27
2022-12-23T01:01:53.582Z,37.30
2022-12-23T01:04:39.668Z,27.90
2022-12-23T01:07:08.027Z,26.50
2022-12-23T01:09:36.418Z,37.23
2022-12-23T01:12:04.638Z,23.30
2022-12-23T01:14:33.046Z,18.73
2022-12-23T01:17:02.642Z,20.07
2022-12-23T01:19:30.867Z,20.33
2022-12-23T01:21:59.059Z,20.50
2022-12-23T01:24:29.364Z,14.27
2022-12-23T01:26:57.681Z,12.47
2022-12-23T01:29:26.085Z,19.77
2022-12-23T01:31:54.317Z,13.97
2022-12-23T01:34:23.924Z,14.57
2022-12-23T01:36:52.079Z,11.37
2022-12-23T01:39:20.311Z,13.23
2022-12-23T01:42:06.490Z,13.40
2022-12-23T01:44:55.498Z,12.27
2022-12-23T01:47:28.546Z,8.50
2022-12-23T01:50:01.652Z,7.60
2022-12-23T01:52:30.333Z,9.07
2022-12-23T01:54:58.920Z,8.17
2022-12-23T01:57:27.557Z,7.50
2022-12-23T02:00:13.709Z,7.87
2022-12-23T02:03:01.772Z,7.47
2022-12-23T02:05:32.011Z,7.87
2022-12-23T02:08:17.781Z,8.20
2022-12-23T02:11:01.745Z,6.40
2022-12-23T02:13:32.891Z,7.00
2022-12-23T02:16:18.031Z,9.60
2022-12-23T02:18:51.097Z,10.73
2022-12-23T02:21:27.985Z,10.00
2022-12-23T02:24:26.668Z,9.63
2022-12-23T02:27:00.855Z,8.90
2022-12-23T02:29:40.145Z,10.53
2022-12-23T02:32:12.424Z,11.00
2022-12-23T02:34:42.605Z,11.67
2022-12-23T02:37:13.620Z,10.80
2022-12-23T02:39:44.254Z,11.00
2022-12-23T02:42:14.538Z,11.57
2022-12-23T02:44:46.672Z,13.40
2022-12-23T02:47:18.567Z,11.33
2022-12-23T02:49:49.584Z,10.67
2022-12-23T02:52:20.083Z,12.83
2022-12-23T02:54:51.976Z,14.23
2022-12-23T02:57:22.246Z,10.87
2022-12-23T02:59:52.378Z,10.47
2022-12-23T03:02:22.086Z,12.40
2022-12-23T03:04:50.597Z,11.47
2022-12-23T03:07:19.860Z,12.40
2022-12-23T03:09:52.721Z,11.50
2022-12-23T03:12:24.400Z,14.23
2022-12-23T03:14:57.531Z,14.40
2022-12-23T03:17:40.550Z,16.30
2022-12-23T03:20:14.804Z,14.83
2022-12-23T03:22:48.773Z,18.73
2022-12-23T03:25:20.815Z,13.10
2022-12-23T03:28:05.437Z,14.73
2022-12-23T03:30:35.536Z,15.47
2022-12-23T03:33:06.406Z,15.70
2022-12-23T03:35:38.559Z,13.97
2022-12-23T03:38:09.135Z,14.43
2022-12-23T03:40:38.584Z,13.67
2022-12-23T03:43:09.691Z,11.50
2022-12-23T03:45:41.359Z,10.77
2022-12-23T03:48:11.985Z,14.70
2022-12-23T03:50:42.887Z,11.67
2022-12-23T03:53:14.299Z,12.10
2022-12-23T03:55:45.427Z,10.20
2022-12-23T03:58:16.012Z,9.60
2022-12-23T04:00:48.401Z,10.13
2022-12-23T04:03:19.476Z,10.50
2022-12-23T04:05:53.123Z,11.77
2022-12-23T04:08:23.924Z,6.77
2022-12-23T04:10:52.208Z,8.53
2022-12-23T04:13:20.609Z,9.10
2022-12-23T04:15:49.144Z,7.40
2022-12-23T04:18:17.499Z,9.43
2022-12-23T04:20:45.664Z,7.63
2022-12-23T04:23:15.236Z,11.30
2022-12-23T04:25:43.690Z,7.70
2022-12-23T04:28:11.920Z,11.13
2022-12-23T04:30:40.139Z,8.57
2022-12-23T04:33:08.367Z,9.07
2022-12-23T04:35:36.567Z,8.03
2022-12-23T04:38:04.845Z,7.93
2022-12-23T04:40:36.982Z,8.13
2022-12-23T04:43:05.177Z,7.67
2022-12-23T04:45:34.306Z,8.30
2022-12-23T04:48:02.489Z,7.47
2022-12-23T04:50:30.636Z,11.23
2022-12-23T04:52:58.832Z,9.37
2022-12-23T04:55:29.786Z,8.37
2022-12-23T04:57:59.268Z,9.73
2022-12-23T05:00:33.998Z,7.67
2022-12-23T05:03:06.869Z,8.97
2022-12-23T05:05:35.176Z,10.07
2022-12-23T05:08:09.100Z,8.47
2022-12-23T05:10:38.653Z,8.43
2022-12-23T05:13:21.350Z,10.77
2022-12-23T05:15:51.492Z,10.00
2022-12-23T05:18:20.865Z,9.50
2022-12-23T05:20:49.168Z,9.73
2022-12-23T05:23:35.114Z,9.87
2022-12-23T05:26:10.105Z,8.33
2022-12-23T05:28:47.155Z,10.67
2022-12-23T05:31:26.454Z,9.63
2022-12-23T05:34:06.077Z,13.07
2022-12-23T05:36:49.368Z,15.53
2022-12-23T05:39:22.051Z,11.70
2022-12-23T05:41:58.224Z,12.37
2022-12-23T05:44:29.650Z,12.73
2022-12-23T05:47:02.301Z,15.70
2022-12-23T05:49:59.866Z,14.67
2022-12-23T05:52:35.066Z,14.30
2022-12-23T05:55:09.882Z,14.97
2022-12-23T05:57:41.072Z,13.30
2022-12-23T06:00:28.805Z,13.77
2022-12-23T06:03:01.191Z,15.23
2022-12-23T06:05:42.728Z,12.53
2022-12-23T06:08:35.048Z,16.50
2022-12-23T06:11:23.244Z,13.33
2022-12-23T06:14:25.277Z,13.83
2022-12-23T06:20:24.911Z,18.00
2022-12-23T06:23:05.983Z,13.37
2022-12-23T06:29:04.640Z,12.97
2022-12-23T06:32:00.248Z,15.17
2022-12-23T06:40:59.872Z,18.90
2022-12-23T06:43:49.820Z,16.70
2022-12-23T06:46:20.801Z,18.30
2022-12-23T06:48:49.011Z,21.70
2022-12-23T06:51:18.498Z,21.20
2022-12-23T06:53:46.678Z,18.53
2022-12-23T06:56:14.847Z,21.10
2022-12-23T06:58:43.019Z,23.93
2022-12-23T07:01:11.216Z,22.67
2022-12-23T07:03:39.553Z,23.10
2022-12-23T07:06:08.046Z,21.57
2022-12-23T07:08:37.574Z,19.03
2022-12-23T07:11:06.009Z,19.10
2022-12-23T07:13:34.654Z,20.57
2022-12-23T07:16:07.044Z,22.97
2022-12-23T07:18:35.576Z,23.87
2022-12-23T07:21:04.389Z,24.13
2022-12-23T07:23:32.762Z,23.67
2022-12-23T07:26:02.229Z,24.97
2022-12-23T07:28:30.347Z,25.70
2022-12-23T07:30:58.476Z,29.07
2022-12-23T07:33:26.664Z,28.93
2022-12-23T07:35:59.200Z,25.97
2022-12-23T07:38:27.403Z,25.40
2022-12-23T07:40:55.516Z,26.30
2022-12-23T07:43:25.092Z,28.27
2022-12-23T07:45:59.622Z,26.30
2022-12-23T07:48:28.623Z,27.80
2022-12-23T07:51:01.615Z,28.07
2022-12-23T07:53:29.783Z,28.80
2022-12-23T07:55:58.328Z,25.90
2022-12-23T07:58:28.077Z,22.43
2022-12-23T08:01:00.745Z,23.57
2022-12-23T08:03:28.970Z,20.63
2022-12-23T08:06:05.755Z,20.17
2022-12-23T08:08:33.919Z,22.00
2022-12-23T08:11:02.645Z,16.97
2022-12-23T08:13:32.383Z,18.93
2022-12-23T08:16:01.590Z,16.30
2022-12-23T08:18:31.690Z,17.70
2022-12-23T08:21:00.602Z,16.43
2022-12-23T08:23:29.456Z,15.80
2022-12-23T08:26:01.452Z,12.57
2022-12-23T08:28:29.641Z,12.70
2022-12-23T08:31:04.357Z,13.30
2022-12-23T08:33:32.632Z,11.27
2022-12-23T08:36:01.008Z,12.37
2022-12-23T08:38:29.179Z,15.83
2022-12-23T08:40:57.403Z,14.00
2022-12-23T08:43:28.896Z,15.97
2022-12-23T08:46:03.271Z,13.83
2022-12-23T08:48:31.547Z,13.60
2022-12-23T08:51:03.820Z,12.87
2022-12-23T08:53:32.018Z,11.63
2022-12-23T08:56:02.961Z,13.47
2022-12-23T08:58:31.177Z,15.73
2022-12-23T09:00:59.386Z,14.57
2022-12-23T09:03:28.968Z,13.37
2022-12-23T09:05:57.153Z,14.97
2022-12-23T09:08:25.390Z,12.67
2022-12-23T09:10:53.529Z,16.07
2022-12-23T09:13:30.743Z,16.53
2022-12-23T09:16:03.001Z,17.40
2022-12-23T09:18:32.582Z,16.30
2022-12-23T09:21:01.186Z,15.23
2022-12-23T09:23:29.630Z,17.17
2022-12-23T09:25:57.854Z,14.87
2022-12-23T09:28:26.304Z,13.63
2022-12-23T09:30:54.640Z,13.83
2022-12-23T09:33:22.859Z,15.47
2022-12-23T09:35:52.426Z,16.40
2022-12-23T09:38:20.552Z,16.13
2022-12-23T09:40:48.719Z,15.37
2022-12-23T09:43:23.454Z,14.63
2022-12-23T09:45:57.895Z,14.83
2022-12-23T09:48:28.215Z,16.70
2022-12-23T09:50:57.759Z,18.20
2022-12-23T09:53:29.094Z,20.70
2022-12-23T09:56:02.089Z,24.80
2022-12-23T09:58:31.513Z,26.63
2022-12-23T10:01:04.693Z,25.00
2022-12-23T10:03:37.358Z,32.40
2022-12-23T10:06:09.415Z,39.00
2022-12-23T10:08:39.981Z,38.47
2022-12-23T10:11:09.466Z,40.07
2022-12-23T10:13:39.812Z,38.73
2022-12-23T10:16:10.481Z,39.00
2022-12-23T10:18:49.777Z,39.97
2022-12-23T10:21:22.636Z,36.40
2022-12-23T10:23:52.075Z,45.13
2022-12-23T10:26:24.038Z,45.53
2022-12-23T10:28:52.698Z,40.70
2022-12-23T10:31:39.665Z,43.07
2022-12-23T10:34:12.176Z,51.67
2022-12-23T10:36:47.748Z,50.13
2022-12-23T10:39:21.100Z,46.27
2022-12-23T10:41:52.489Z,48.20
2022-12-23T10:44:40.460Z,46.77
2022-12-23T10:47:14.256Z,46.33
2022-12-23T10:49:48.197Z,53.90
2022-12-23T10:52:19.924Z,46.87
2022-12-23T10:54:49.344Z,53.87
2022-12-23T10:57:18.648Z,45.30
2022-12-23T10:59:47.102Z,47.83
2022-12-23T11:02:34.379Z,50.30
2022-12-23T11:05:02.624Z,41.20
2022-12-23T11:07:47.595Z,40.77
2022-12-23T11:10:18.536Z,39.30
2022-12-23T11:12:47.586Z,36.50
2022-12-23T11:15:27.277Z,32.93
2022-12-23T11:17:59.806Z,33.80
2022-12-23T11:20:28.310Z,31.73
2022-12-23T11:22:59.852Z,32.27
2022-12-23T11:25:29.971Z,27.90
2022-12-23T11:27:59.532Z,25.10
2022-12-23T11:30:27.816Z,26.40
2022-12-23T11:32:56.046Z,23.33
2022-12-23T11:35:29.057Z,26.50
2022-12-23T11:37:59.187Z,22.07
2022-12-23T11:40:28.121Z,26.23
2022-12-23T11:42:58.915Z,24.90
2022-12-23T11:45:28.084Z,27.40
2022-12-23T11:47:56.398Z,25.47
2022-12-23T11:50:27.973Z,21.53
2022-12-23T11:52:57.631Z,25.87
2022-12-23T11:55:29.454Z,25.80
2022-12-23T11:57:57.881Z,23.63
2022-12-23T12:00:28.810Z,23.83
2022-12-23T12:02:58.079Z,24.73
2022-12-23T12:05:30.259Z,25.63
2022-12-23T12:08:00.500Z,28.87
2022-12-23T12:10:31.441Z,25.67
2022-12-23T12:13:01.161Z,28.67
2022-12-23T12:15:35.772Z,22.60
2022-12-23T12:18:06.421Z,22.90
2022-12-23T12:20:37.417Z,27.90
2022-12-23T12:23:08.340Z,25.53
2022-12-23T12:25:41.385Z,23.50
2022-12-23T12:28:13.465Z,27.63
2022-12-23T12:30:46.141Z,23.90
2022-12-23T12:33:18.198Z,27.73
2022-12-23T12:35:53.615Z,27.70
2022-12-23T12:38:25.827Z,23.50
2022-12-23T12:40:57.275Z,25.20
2022-12-23T12:43:30.393Z,32.00
2022-12-23T12:46:06.060Z,28.80
2022-12-23T12:48:39.433Z,27.50
2022-12-23T12:51:13.611Z,27.10
2022-12-23T12:53:44.376Z,25.73
2022-12-23T12:56:26.009Z,25.93
2022-12-23T12:58:54.897Z,29.83
2022-12-23T13:01:29.337Z,25.97
2022-12-23T13:04:09.715Z,24.80
2022-12-23T13:06:42.415Z,27.90
2022-12-23T13:09:14.449Z,26.53
2022-12-23T13:11:46.485Z,26.70
2022-12-23T13:14:20.388Z,25.73
2022-12-23T13:16:51.962Z,25.80
2022-12-23T13:19:24.543Z,23.67
2022-12-23T13:21:54.896Z,25.00
2022-12-23T13:24:25.485Z,24.67
2022-12-23T13:27:02.870Z,25.07
2022-12-23T13:29:37.250Z,23.53
2022-12-23T13:32:09.928Z,23.03
2022-12-23T13:34:46.245Z,22.20
2022-12-23T13:37:18.460Z,24.03
2022-12-23T13:39:53.812Z,20.43
2022-12-23T13:42:27.597Z,18.47
2022-12-23T13:44:56.926Z,19.07
2022-12-23T13:47:29.373Z,19.10
2022-12-23T13:50:01.147Z,16.00
2022-12-23T13:52:38.929Z,15.60
2022-12-23T13:55:17.499Z,15.47
2022-12-23T13:57:54.142Z,19.40
2022-12-23T14:00:26.772Z,14.40
2022-12-23T14:03:05.852Z,14.07
2022-12-23T14:05:35.633Z,16.77
2022-12-23T14:08:06.589Z,14.93
2022-12-23T14:10:35.187Z,15.13
2022-12-23T14:13:06.298Z,15.53
2022-12-23T14:15:48.039Z,14.53
2022-12-23T14:18:25.393Z,14.70
2022-12-23T14:20:56.541Z,16.50
2022-12-23T14:23:31.126Z,16.23
2022-12-23T14:26:11.855Z,14.60
2022-12-23T14:28:52.556Z,14.27
2022-12-23T14:31:31.883Z,18.63
2022-12-23T14:34:24.904Z,19.23
2022-12-23T14:37:11.937Z,20.83
2022-12-23T14:39:40.381Z,14.23
2022-12-23T14:42:14.987Z,13.63
2022-12-23T14:44:51.622Z,17.53
2022-12-23T14:47:31.407Z,16.17
2022-12-23T14:50:23.356Z,15.77
2022-12-23T14:53:00.820Z,13.47
2022-12-23T14:55:45.631Z,17.53
2022-12-23T14:58:32.682Z,16.67
2022-12-23T15:01:03.391Z,13.87
2022-12-23T15:03:33.701Z,11.20
2022-12-23T15:06:05.348Z,9.70
2022-12-23T15:08:35.604Z,9.63
2022-12-23T15:11:03.999Z,12.03
2022-12-23T15:13:33.478Z,8.70
2022-12-23T15:16:02.445Z,10.10
2022-12-23T15:18:30.733Z,9.37
2022-12-23T15:21:03.483Z,10.63
2022-12-23T15:23:33.297Z,10.57
2022-12-23T15:26:03.235Z,12.40
2022-12-23T15:28:36.710Z,12.57
2022-12-23T15:31:05.395Z,13.23
2022-12-23T15:34:02.404Z,10.73
2022-12-23T15:36:30.643Z,12.07
2022-12-23T15:38:59.401Z,12.20
2022-12-23T15:41:29.291Z,10.80
2022-12-23T15:44:01.732Z,11.00
2022-12-23T15:46:30.838Z,12.17
2022-12-23T15:48:59.348Z,13.80
2022-12-23T15:51:58.230Z,11.37
2022-12-23T15:54:24.622Z,12.20
2022-12-23T15:56:55.228Z,11.67
2022-12-23T15:59:25.531Z,11.20
2022-12-23T16:01:54.732Z,9.57
2022-12-23T16:04:25.967Z,12.43
2022-12-23T16:06:54.696Z,12.43
2022-12-23T16:09:42.016Z,9.67
2022-12-23T16:12:23.444Z,12.37
2022-12-23T16:14:54.336Z,12.37
2022-12-23T16:17:27.078Z,11.57
2022-12-23T16:19:56.107Z,10.60
2022-12-23T16:22:27.316Z,12.73
2022-12-23T16:25:01.016Z,8.30
2022-12-23T16:27:35.309Z,10.10
2022-12-23T16:30:04.263Z,4.40
2022-12-23T16:32:32.534Z,7.13
2022-12-23T16:35:10.583Z,6.20
2022-12-23T16:37:38.712Z,9.50
2022-12-23T16:40:14.225Z,6.57
2022-12-23T16:42:43.731Z,13.43
2022-12-23T16:45:14.261Z,8.80
2022-12-23T16:47:43.356Z,11.53
2022-12-23T16:50:14.228Z,6.03
2022-12-23T16:52:42.451Z,13.07
2022-12-23T16:55:14.757Z,10.07
2022-12-23T16:57:44.453Z,11.97
2022-12-23T17:00:16.258Z,9.17
2022-12-23T17:02:45.117Z,13.30
2022-12-23T17:05:16.865Z,12.00
2022-12-23T17:07:45.695Z,12.57
2022-12-23T17:10:14.773Z,13.30
2022-12-23T17:12:44.573Z,15.97
2022-12-23T17:15:17.375Z,20.97
2022-12-23T17:17:45.575Z,19.03
2022-12-23T17:20:14.225Z,27.07
2022-12-23T17:22:44.269Z,36.13
2022-12-23T17:25:13.561Z,33.00
2022-12-23T17:27:41.807Z,26.90
2022-12-23T17:30:15.837Z,31.63
2022-12-23T17:32:44.035Z,43.07
2022-12-23T17:35:15.816Z,42.60
2022-12-23T17:37:44.332Z,35.73
2022-12-23T17:40:13.412Z,44.40
2022-12-23T17:42:41.713Z,45.87
2022-12-23T17:45:17.376Z,31.73
2022-12-23T17:47:45.637Z,51.67
2022-12-23T17:50:13.807Z,52.20
2022-12-23T17:52:41.919Z,41.23
2022-12-23T17:55:17.353Z,38.73
2022-12-23T17:57:45.567Z,44.87
2022-12-23T18:00:22.534Z,48.80
2022-12-23T18:02:56.188Z,33.70
2022-12-23T18:05:25.145Z,37.17
2022-12-23T18:07:53.803Z,42.13
2022-12-23T18:10:22.546Z,35.00
2022-12-23T18:12:51.623Z,44.50
2022-12-23T18:15:22.757Z,40.07
2022-12-23T18:17:51.299Z,39.37
2022-12-23T18:20:20.699Z,40.77
2022-12-23T18:22:49.697Z,43.90
2022-12-23T18:25:18.712Z,45.90
2022-12-23T18:27:47.692Z,44.37
2022-12-23T18:30:16.030Z,39.73
2022-12-23T18:32:46.030Z,37.57
2022-12-23T18:35:27.997Z,39.70
2022-12-23T18:37:56.484Z,40.40
2022-12-23T18:40:30.891Z,40.13
2022-12-23T18:43:01.034Z,37.10
2022-12-23T18:45:35.358Z,37.63
2022-12-23T18:48:05.449Z,34.43
2022-12-23T18:50:33.941Z,37.87
2022-12-23T18:53:02.407Z,46.30
2022-12-23T18:55:31.261Z,41.27
2022-12-23T18:58:00.358Z,45.27
2022-12-23T19:00:29.648Z,35.20
2022-12-23T19:02:58.341Z,34.40
2022-12-23T19:05:29.225Z,38.23
2022-12-23T19:07:58.406Z,44.07
2022-12-23T19:10:28.278Z,47.63
2022-12-23T19:12:57.068Z,39.30
2022-12-23T19:15:25.528Z,39.33
2022-12-23T19:17:53.722Z,42.00
2022-12-23T19:20:22.434Z,44.20
2022-12-23T19:22:51.936Z,49.10
2022-12-23T19:25:20.949Z,29.70
2022-12-23T19:27:49.139Z,34.83
2022-12-23T19:30:17.787Z,27.67
2022-12-23T19:32:46.390Z,33.77
2022-12-23T19:35:14.963Z,26.60
2022-12-23T19:37:43.266Z,33.73
2022-12-23T19:40:13.092Z,35.27
2022-12-23T19:42:41.558Z,23.63
2022-12-23T19:45:10.527Z,31.33
2022-12-23T19:47:38.719Z,36.77
2022-12-23T19:50:07.355Z,25.23
2022-12-23T19:52:35.840Z,29.13
2022-12-23T19:55:04.090Z,21.17
2022-12-23T19:57:34.631Z,24.23
2022-12-23T20:00:02.917Z,20.80
2022-12-23T20:02:31.104Z,24.77
2022-12-23T20:04:59.348Z,22.13
2022-12-23T20:07:27.521Z,26.20
2022-12-23T20:09:55.703Z,23.77
2022-12-23T20:12:25.309Z,25.27
2022-12-23T20:14:54.889Z,19.00
2022-12-23T20:17:23.122Z,24.97
2022-12-23T20:19:51.254Z,19.60
2022-12-23T20:22:19.452Z,14.73
2022-12-23T20:24:47.682Z,21.23
2022-12-23T20:27:16.367Z,18.00
2022-12-23T20:29:45.771Z,22.43
2022-12-23T20:32:15.266Z,11.17
2022-12-23T20:34:43.522Z,15.60
2022-12-23T20:37:11.885Z,17.30
2022-12-23T20:39:40.053Z,21.83
2022-12-23T20:42:08.511Z,20.57
2022-12-23T20:44:37.630Z,21.07
2022-12-23T20:47:06.340Z,20.03
2022-12-23T20:49:35.949Z,16.57
2022-12-23T20:52:04.123Z,16.67
2022-12-23T20:54:33.857Z,21.37
2022-12-23T20:57:02.501Z,16.87
2022-12-23T20:59:30.693Z,12.63
2022-12-23T21:01:59.510Z,22.13
2022-12-23T21:04:27.893Z,19.40
2022-12-23T21:06:57.395Z,16.57
2022-12-23T21:09:25.567Z,18.27
2022-12-23T21:11:53.785Z,11.00
2022-12-23T21:14:22.014Z,20.70
2022-12-23T21:16:50.332Z,21.70
2022-12-23T21:19:19.676Z,20.03
2022-12-23T21:21:48.052Z,19.23
2022-12-23T21:24:17.798Z,15.27
2022-12-23T21:26:49.023Z,10.67
2022-12-23T21:29:22.033Z,15.90
2022-12-23T21:31:50.366Z,20.80
2022-12-23T21:34:18.580Z,20.27
2022-12-23T21:36:46.875Z,23.43
2022-12-23T21:39:16.374Z,19.60
2022-12-23T21:41:46.111Z,20.97
2022-12-23T21:44:15.542Z,15.90
2022-12-23T21:46:43.825Z,28.27
2022-12-23T21:49:12.448Z,26.30
2022-12-23T21:51:41.775Z,18.13
2022-12-23T21:54:10.946Z,27.13
2022-12-23T21:56:39.522Z,25.10
2022-12-23T21:59:10.486Z,23.70
2022-12-23T22:01:38.697Z,21.93
2022-12-23T22:04:07.113Z,28.90
2022-12-23T22:06:36.543Z,27.43
2022-12-23T22:09:05.350Z,22.47
2022-12-23T22:11:34.900Z,24.10
2022-12-23T22:14:03.612Z,20.10
2022-12-23T22:16:33.443Z,25.97
2022-12-23T22:19:02.700Z,21.17
2022-12-23T22:21:31.856Z,26.53
2022-12-23T22:24:00.460Z,23.30
2022-12-23T22:26:29.463Z,18.53
2022-12-23T22:28:58.286Z,20.20
2022-12-23T22:31:30.864Z,21.53
2022-12-23T22:34:00.422Z,20.50
2022-12-23T22:36:28.691Z,26.37
2022-12-23T22:38:58.085Z,24.73
2022-12-23T22:41:27.843Z,20.37
2022-12-23T22:43:56.458Z,32.10
2022-12-23T22:46:25.389Z,25.13
2022-12-23T22:48:53.844Z,24.10
2022-12-23T22:51:24.132Z,20.37
2022-12-23T22:53:52.408Z,31.70
2022-12-23T22:56:21.626Z,25.03
2022-12-23T22:58:49.979Z,24.53
2022-12-23T23:01:21.255Z,32.10
2022-12-23T23:03:51.013Z,25.23
2022-12-23T23:06:19.442Z,26.80
2022-12-23T23:08:48.961Z,22.13
2022-12-23T23:11:17.136Z,29.40
2022-12-23T23:13:45.262Z,38.93
2022-12-23T23:16:13.536Z,23.30
2022-12-23T23:18:41.779Z,37.63
2022-12-23T23:21:10.588Z,33.27
2022-12-23T23:23:38.761Z,29.53
2022-12-23T23:26:10.241Z,23.43
2022-12-23T23:28:39.364Z,34.93
2022-12-23T23:31:40.651Z,32.63
2022-12-23T23:33:57.603Z,31.47
2022-12-23T23:36:25.821Z,31.03
2022-12-23T23:38:54.084Z,37.43
2022-12-23T23:41:24.241Z,29.60
2022-12-23T23:43:52.609Z,32.13
2022-12-23T23:46:21.238Z,31.47
2022-12-23T23:48:49.426Z,29.53
2022-12-23T23:51:17.600Z,34.83
2022-12-23T23:53:45.782Z,36.10
2022-12-23T23:56:13.959Z,26.70
2022-12-23T23:58:43.481Z,32.50
